Time;durP1;ratioP1;P1;durP2;ratioP2;P2;SDS_P1;SDS_P2;PMS_P1;PMS_P2;Temp;Humidity;BMP_temperature;BMP_pressure;BME280_temperature;BME280_humidity;BME280_pressure;Samples;Min_cycle;Max_cycle;Signal;HPM_P1;HPM_P2
2022/05/10 00:03:36;;;;;;;;;;;;;;;21.19;44.37;96241.44;10333315;28;1798;-55
2022/05/10 00:08:37;;;;;;;;;;;;;;;21.19;44.36;96230.91;10343587;28;2019;-59
2022/05/10 00:13:37;;;;;;;;;;;;;;;21.18;44.52;96234.59;10334087;28;1865;-57
2022/05/10 00:18:38;;;;;;;;;;;;;;;21.19;44.44;96228.25;10338647;28;1865;-58
2022/05/10 00:23:38;;;;;;;;;;;;;;;21.19;44.18;96230.91;10330897;28;2258;-58
2022/05/10 00:28:39;;;;;;;;;;;;;;;21.18;44.39;96224.88;10346457;28;2057;-60
2022/05/10 00:33:39;;;;;;;;;;;;;;;21.18;44.36;96216.97;10332227;28;2209;-57
2022/05/10 00:38:40;;;;;;;;;;;;;;;21.17;44.31;96209.28;10345576;28;1929;-57
2022/05/10 00:43:42;;;;;;;;;;;;;;;21.17;44.39;96204.00;10350758;28;2187;-56
2022/05/10 00:49:02;;;;;;;;;;;;;;;21.17;44.51;96214.56;10351358;28;1983;-53
2022/05/10 00:54:08;;;;;;;;;;;;;;;21.16;44.47;96205.09;10301349;28;4168;-56
2022/05/10 00:59:18;;;;;;;;;;;;;;;21.17;44.21;96204.00;10326163;28;1973;-55
2022/05/10 01:04:25;;;;;;;;;;;;;;;21.16;44.00;96199.81;10353881;28;1971;-57
2022/05/10 01:09:42;;;;;;;;;;;;;;;21.15;43.88;96204.28;10352130;28;1965;-55
2022/05/10 01:15:02;;;;;;;;;;;;;;;21.15;44.33;96199.03;10352265;28;2177;-56
2022/05/10 01:20:03;;;;;;;;;;;;;;;21.15;44.03;96187.66;10339922;28;1933;-61
2022/05/10 01:25:14;;;;;;;;;;;;;;;21.14;43.97;96186.09;10352486;28;2084;-54
2022/05/10 01:30:27;;;;;;;;;;;;;;;21.14;43.98;96180.84;10335934;28;1914;-57
2022/05/10 01:35:28;;;;;;;;;;;;;;;21.14;44.12;96178.19;10341715;28;2021;-53
2022/05/10 01:40:29;;;;;;;;;;;;;;;21.13;43.85;96181.88;10313920;28;1879;-57
2022/05/10 01:45:32;;;;;;;;;;;;;;;21.13;43.93;96187.16;10350077;28;1879;-59
2022/05/10 01:50:39;;;;;;;;;;;;;;;21.13;44.02;96184.50;10344854;28;1969;-59
2022/05/10 01:55:41;;;;;;;;;;;;;;;21.13;43.77;96180.03;10326203;28;4166;-56
2022/05/10 02:00:43;;;;;;;;;;;;;;;21.13;43.88;96189.78;10338597;28;1744;-58
2022/05/10 02:05:49;;;;;;;;;;;;;;;21.13;43.74;96195.84;10333631;28;1905;-55
2022/05/10 02:10:50;;;;;;;;;;;;;;;21.12;43.92;96198.78;10343761;28;1936;-57
2022/05/10 02:15:55;;;;;;;;;;;;;;;21.12;43.98;96204.03;10354588;28;1955;-56
2022/05/10 02:21:04;;;;;;;;;;;;;;;21.12;44.00;96193.50;10354375;28;1939;-58
2022/05/10 02:26:06;;;;;;;;;;;;;;;21.11;43.93;96203.25;10329963;28;1987;-58
2022/05/10 02:31:08;;;;;;;;;;;;;;;21.12;43.74;96201.41;10339352;28;1967;-56
2022/05/10 02:36:08;;;;;;;;;;;;;;;21.11;44.00;96197.16;10325982;28;1959;-57
2022/05/10 02:41:10;;;;;;;;;;;;;;;21.11;43.86;96207.72;10351162;28;1985;-57
2022/05/10 02:46:10;;;;;;;;;;;;;;;21.10;43.71;96206.16;10358068;28;2047;-55
2022/05/10 02:51:10;;;;;;;;;;;;;;;21.09;43.62;96200.09;10362665;28;1914;-54
2022/05/10 02:56:12;;;;;;;;;;;;;;;21.11;43.71;96202.44;10353887;28;4165;-57
2022/05/10 03:01:26;;;;;;;;;;;;;;;21.08;43.83;96194.00;10361054;28;1932;-57
2022/05/10 03:06:28;;;;;;;;;;;;;;;21.08;43.51;96199.28;10314087;28;1916;-55
2022/05/10 03:11:29;;;;;;;;;;;;;;;21.08;43.51;96200.34;10343700;28;1960;-57
2022/05/10 03:16:29;;;;;;;;;;;;;;;21.06;43.52;96196.13;10337875;28;1916;-56
2022/05/10 03:21:30;;;;;;;;;;;;;;;21.08;43.51;96209.81;10361123;28;1675;-59
2022/05/10 03:26:30;;;;;;;;;;;;;;;21.08;43.66;96205.63;10357634;28;1970;-57
2022/05/10 03:31:30;;;;;;;;;;;;;;;21.07;43.51;96207.47;10360825;28;1973;-57
2022/05/10 03:36:31;;;;;;;;;;;;;;;21.06;43.63;96200.63;10355087;28;1929;-55
2022/05/10 03:41:31;;;;;;;;;;;;;;;21.06;43.45;96205.91;10360936;28;2042;-57
2022/05/10 03:46:31;;;;;;;;;;;;;;;21.06;43.23;96208.53;10352853;28;1916;-54
2022/05/10 03:51:32;;;;;;;;;;;;;;;21.06;43.35;96206.66;10358456;28;1966;-54
2022/05/10 03:56:34;;;;;;;;;;;;;;;21.04;43.58;96206.13;10335798;28;4145;-53
2022/05/10 04:01:34;;;;;;;;;;;;;;;21.05;43.35;96204.31;10348655;28;2114;-52
2022/05/10 04:06:34;;;;;;;;;;;;;;;21.05;43.23;96201.66;10342368;28;1913;-56
2022/05/10 04:11:35;;;;;;;;;;;;;;;21.06;43.36;96201.41;10334036;28;1918;-56
2022/05/10 04:16:42;;;;;;;;;;;;;;;21.04;43.23;96198.22;10355738;28;1899;-55
2022/05/10 04:21:42;;;;;;;;;;;;;;;21.04;43.22;96195.59;10350283;28;1955;-53
2022/05/10 04:26:43;;;;;;;;;;;;;;;21.04;43.43;96198.22;10349731;28;1998;-57
2022/05/10 04:31:43;;;;;;;;;;;;;;;21.05;43.30;96196.41;10353710;28;2070;-56
2022/05/10 04:36:44;;;;;;;;;;;;;;;21.04;43.29;96198.22;10362423;28;1983;-55
2022/05/10 04:41:49;;;;;;;;;;;;;;;21.04;43.08;96202.75;10336886;28;2205;-57
2022/05/10 04:46:49;;;;;;;;;;;;;;;21.04;43.13;96214.06;10340830;28;2034;-59
2022/05/10 04:51:50;;;;;;;;;;;;;;;21.04;43.02;96203.50;10334296;28;1945;-53
2022/05/10 04:56:50;;;;;;;;;;;;;;;21.05;43.30;96193.75;10343073;28;4300;-55
2022/05/10 05:01:50;;;;;;;;;;;;;;;21.04;43.08;96192.97;10354316;28;2006;-52
2022/05/10 05:06:52;;;;;;;;;;;;;;;21.04;43.25;96197.47;10350098;28;2273;-56
2022/05/10 05:11:53;;;;;;;;;;;;;;;21.04;43.25;96203.50;10352855;28;1948;-55
2022/05/10 05:16:54;;;;;;;;;;;;;;;21.03;43.29;96201.94;10330959;28;1971;-53
2022/05/10 05:21:55;;;;;;;;;;;;;;;21.04;43.15;96214.06;10354566;28;1904;-52
2022/05/10 05:26:55;;;;;;;;;;;;;;;21.05;43.16;96217.47;10335917;28;2050;-56
2022/05/10 05:31:55;;;;;;;;;;;;;;;21.04;43.45;96224.59;10349599;28;1921;-54
2022/05/10 05:42:15;;;;;;;;;;;;;;;21.04;43.37;96219.31;10333863;28;1829;-54
2022/05/10 05:47:15;;;;;;;;;;;;;;;21.03;43.38;96225.66;10331281;28;1937;-52
2022/05/10 05:52:20;;;;;;;;;;;;;;;21.04;43.36;96229.88;10347329;28;1841;-55
2022/05/10 05:57:20;;;;;;;;;;;;;;;21.03;43.18;96223.03;10364640;28;4216;-54
2022/05/10 06:02:21;;;;;;;;;;;;;;;21.04;43.29;96224.59;10375275;28;1874;-57
2022/05/10 06:07:21;;;;;;;;;;;;;;;21.03;43.17;96228.31;10370011;28;1996;-57
2022/05/10 06:12:21;;;;;;;;;;;;;;;21.04;43.28;96229.88;10370654;28;1788;-59
2022/05/10 06:17:23;;;;;;;;;;;;;;;21.03;43.25;96225.66;10378026;28;1690;-59
2022/05/10 06:22:23;;;;;;;;;;;;;;;21.04;43.36;96232.50;10362428;28;1850;-55
2022/05/10 06:27:24;;;;;;;;;;;;;;;21.04;43.68;96227.22;10358802;28;1914;-54
2022/05/10 06:32:25;;;;;;;;;;;;;;;21.06;43.94;96233.03;10335218;28;1852;-55
2022/05/10 06:42:45;;;;;;;;;;;;;;;21.07;44.00;96233.81;10342225;28;1773;-55
2022/05/10 06:47:47;;;;;;;;;;;;;;;21.06;43.99;96233.03;10337198;28;1910;-55
2022/05/10 06:52:51;;;;;;;;;;;;;;;21.06;43.96;96222.47;10339646;28;1758;-58
2022/05/10 06:57:52;;;;;;;;;;;;;;;21.07;44.06;96223.28;10346147;28;4341;-56
2022/05/10 07:02:52;;;;;;;;;;;;;;;21.08;43.91;96226.72;10357680;28;1801;-53
2022/05/10 07:07:53;;;;;;;;;;;;;;;21.08;44.32;96224.06;10349764;28;1910;-55
2022/05/10 07:12:54;;;;;;;;;;;;;;;21.06;44.01;96217.22;10339680;28;2051;-54
2022/05/10 07:17:55;;;;;;;;;;;;;;;21.08;44.00;96213.53;10344096;28;1773;-51
2022/05/10 07:22:55;;;;;;;;;;;;;;;21.08;43.92;96218.81;10335537;28;1885;-58
2022/05/10 07:27:56;;;;;;;;;;;;;;;21.06;44.40;96211.94;10348921;28;2077;-54
2022/05/10 07:32:56;;;;;;;;;;;;;;;21.08;44.34;96213.53;10340349;28;1837;-56
2022/05/10 07:37:56;;;;;;;;;;;;;;;21.06;44.24;96211.94;10353638;28;1804;-56
2022/05/10 07:42:57;;;;;;;;;;;;;;;21.08;43.91;96218.81;10349150;28;1856;-57
2022/05/10 07:47:57;;;;;;;;;;;;;;;21.07;43.99;96207.47;10340670;28;1964;-54
2022/05/10 07:52:59;;;;;;;;;;;;;;;21.07;44.25;96207.47;10334972;28;2135;-57
2022/05/10 07:58:00;;;;;;;;;;;;;;;21.08;44.15;96205.63;10349045;28;4373;-55
2022/05/10 08:03:06;;;;;;;;;;;;;;;21.07;44.06;96207.47;10354023;28;1867;-55
2022/05/10 08:08:07;;;;;;;;;;;;;;;21.06;44.21;96206.66;10356023;28;1915;-55
2022/05/10 08:13:14;;;;;;;;;;;;;;;21.08;44.23;96200.34;10343375;28;1895;-55
2022/05/10 08:18:15;;;;;;;;;;;;;;;21.06;44.28;96190.84;10341584;28;1848;-55
2022/05/10 08:23:16;;;;;;;;;;;;;;;21.06;44.16;96188.22;10341788;28;1881;-55
2022/05/10 08:28:16;;;;;;;;;;;;;;;21.07;44.29;96199.56;10353514;28;1910;-55
2022/05/10 08:33:17;;;;;;;;;;;;;;;21.08;44.14;96197.72;10357776;28;1808;-54
2022/05/10 08:38:18;;;;;;;;;;;;;;;21.08;44.36;96193.25;10350942;28;1976;-55
2022/05/10 08:43:22;;;;;;;;;;;;;;;21.08;44.17;96192.44;10329889;28;1877;-54
2022/05/10 08:48:24;;;;;;;;;;;;;;;21.08;44.30;96188.75;10356068;28;1906;-56
2022/05/10 08:53:24;;;;;;;;;;;;;;;21.10;44.15;96185.06;10338574;28;1857;-59
2022/05/10 08:58:28;;;;;;;;;;;;;;;21.10;44.34;96174.53;10330018;28;4329;-58
2022/05/10 09:03:50;;;;;;;;;;;;;;;21.11;44.19;96184.00;10341415;28;1894;-55
2022/05/10 09:09:02;;;;;;;;;;;;;;;21.10;44.36;96179.78;10353960;28;1906;-53
2022/05/10 09:14:02;;;;;;;;;;;;;;;21.10;44.42;96171.88;10341409;28;1857;-57
2022/05/10 09:19:02;;;;;;;;;;;;;;;21.11;44.48;96165.53;10325038;28;1891;-54
2022/05/10 09:24:15;;;;;;;;;;;;;;;21.11;44.33;96170.81;10353602;28;1788;-57
2022/05/10 09:29:27;;;;;;;;;;;;;;;21.10;44.64;96172.69;10343256;28;1961;-53
2022/05/10 09:34:47;;;;;;;;;;;;;;;21.11;44.43;96166.34;10324919;28;1804;-54
2022/05/10 09:39:57;;;;;;;;;;;;;;;21.14;44.60;96167.66;10334343;28;1875;-55
2022/05/10 09:44:59;;;;;;;;;;;;;;;21.14;44.77;96170.28;10334085;28;1753;-55
2022/05/10 09:50:13;;;;;;;;;;;;;;;21.14;44.85;96168.44;10339533;28;1906;-53
2022/05/10 09:55:23;;;;;;;;;;;;;;;21.15;45.13;96166.59;10350806;28;1792;-53
2022/05/10 10:00:40;;;;;;;;;;;;;;;21.20;45.91;96171.84;10312695;28;4158;-54
2022/05/10 10:05:41;;;;;;;;;;;;;;;21.21;46.73;96163.69;10352656;28;1788;-55
2022/05/10 10:10:41;;;;;;;;;;;;;;;21.32;47.08;96165.25;10331371;28;1906;-56
2022/05/10 10:15:42;;;;;;;;;;;;;;;21.29;47.07;96162.34;10352291;28;1812;-55
2022/05/10 10:20:42;;;;;;;;;;;;;;;21.28;46.74;96160.75;10353017;28;1824;-54
2022/05/10 10:25:43;;;;;;;;;;;;;;;21.28;47.11;96153.66;10347898;28;1804;-53
2022/05/10 10:30:46;;;;;;;;;;;;;;;21.29;47.19;96146.53;10336699;28;1990;-56
2022/05/10 10:35:46;;;;;;;;;;;;;;;21.28;46.91;96139.66;10320517;28;1884;-54
2022/05/10 10:40:48;;;;;;;;;;;;;;;21.30;47.09;96142.81;10333175;28;1861;-56
2022/05/10 10:45:53;;;;;;;;;;;;;;;21.30;47.05;96145.47;10326976;28;1852;-55
2022/05/10 10:50:54;;;;;;;;;;;;;;;21.33;46.75;96137.81;10332021;28;1910;-58
2022/05/10 10:55:54;;;;;;;;;;;;;;;21.33;46.79;96129.13;10347895;28;1780;-56
2022/05/10 11:00:56;;;;;;;;;;;;;;;21.31;46.52;96121.47;10324841;28;4109;-56
2022/05/10 11:06:08;;;;;;;;;;;;;;;21.31;46.36;96126.72;10341038;28;1863;-55
2022/05/10 11:11:09;;;;;;;;;;;;;;;21.32;46.74;96125.69;10340586;28;1903;-55
2022/05/10 11:16:09;;;;;;;;;;;;;;;21.32;46.47;96119.63;10343286;28;1840;-54
2022/05/10 11:21:11;;;;;;;;;;;;;;;21.32;46.46;96116.97;10358598;28;1784;-55
2022/05/10 11:26:18;;;;;;;;;;;;;;;21.32;46.39;96101.16;10356636;28;1828;-57
2022/05/10 11:31:28;;;;;;;;;;;;;;;21.32;46.38;96101.16;10331422;28;2105;-56
2022/05/10 11:36:32;;;;;;;;;;;;;;;21.32;46.45;96098.53;10341107;28;1662;-54
2022/05/10 11:41:41;;;;;;;;;;;;;;;21.33;46.49;96094.84;10355633;28;1741;-57
2022/05/10 11:46:48;;;;;;;;;;;;;;;21.33;46.14;96079.03;10337809;28;1789;-56
2022/05/10 11:51:54;;;;;;;;;;;;;;;21.33;46.29;96079.03;10323649;28;1907;-55
2022/05/10 11:56:55;;;;;;;;;;;;;;;21.34;46.06;96076.09;10353718;28;1733;-54
2022/05/10 12:01:55;;;;;;;;;;;;;;;21.34;46.23;96072.66;10334659;28;4167;-57
2022/05/10 12:06:56;;;;;;;;;;;;;;;21.33;46.21;96060.56;10343675;28;1810;-57
2022/05/10 12:11:57;;;;;;;;;;;;;;;21.35;46.37;96066.34;10337089;28;1997;-54
2022/05/10 12:22:18;;;;;;;;;;;;;;;21.37;46.05;96043.13;10326950;28;1815;-54
2022/05/10 12:27:25;;;;;;;;;;;;;;;21.38;46.29;96045.50;10336377;28;1895;-53
2022/05/10 12:32:36;;;;;;;;;;;;;;;21.37;46.22;96035.22;10343893;28;2075;-53
2022/05/10 12:37:48;;;;;;;;;;;;;;;21.38;46.22;96034.16;10332502;28;1751;-56
2022/05/10 12:42:49;;;;;;;;;;;;;;;21.41;46.25;96041.53;10348967;28;2014;-55
2022/05/10 12:47:55;;;;;;;;;;;;;;;21.39;46.07;96028.59;10339703;28;1996;-55
2022/05/10 12:52:55;;;;;;;;;;;;;;;21.40;46.13;96019.66;10355234;28;1812;-54
2022/05/10 12:57:56;;;;;;;;;;;;;;;21.41;46.02;96023.06;10338003;28;1839;-56
2022/05/10 13:03:13;;;;;;;;;;;;;;;21.43;46.04;96018.31;10339776;28;4211;-57
2022/05/10 13:08:24;;;;;;;;;;;;;;;21.42;46.04;96001.69;10332609;28;1971;-55
2022/05/10 13:13:26;;;;;;;;;;;;;;;21.43;46.10;96000.63;10317653;28;1775;-56
2022/05/10 13:18:26;;;;;;;;;;;;;;;21.44;46.02;95991.66;10350086;28;1853;-56
2022/05/10 13:23:30;;;;;;;;;;;;;;;21.45;45.96;95984.56;10330416;28;1880;-56
2022/05/10 13:28:30;;;;;;;;;;;;;;;21.43;46.16;95979.53;10354466;28;1910;-56
2022/05/10 13:33:32;;;;;;;;;;;;;;;21.43;45.95;95973.47;10332557;28;1774;-58
2022/05/10 13:38:46;;;;;;;;;;;;;;;21.44;46.02;95977.69;10345390;28;1993;-57
2022/05/10 13:43:50;;;;;;;;;;;;;;;21.46;45.80;95975.56;10322083;28;1890;-57
2022/05/10 13:48:51;;;;;;;;;;;;;;;21.45;46.07;95972.13;10354615;28;1981;-54
2022/05/10 13:53:55;;;;;;;;;;;;;;;21.45;46.06;95961.56;10346830;28;1840;-57
2022/05/10 13:58:56;;;;;;;;;;;;;;;21.45;46.23;95960.81;10346401;28;3979;-55
2022/05/10 14:04:04;;;;;;;;;;;;;;;21.46;46.15;95957.09;10333967;28;4555;-57
2022/05/10 14:09:07;;;;;;;;;;;;;;;21.46;46.06;95951.81;10329017;28;1906;-59
2022/05/10 14:14:11;;;;;;;;;;;;;;;21.45;45.94;95945.00;10315568;28;1771;-59
2022/05/10 14:19:32;;;;;;;;;;;;;;;21.45;45.95;95934.44;10331627;28;1934;-58
2022/05/10 14:24:32;;;;;;;;;;;;;;;21.46;46.19;95938.63;10351423;28;1856;-57
2022/05/10 14:29:34;;;;;;;;;;;;;;;21.45;46.12;95935.22;10344489;28;1977;-57
2022/05/10 14:34:45;;;;;;;;;;;;;;;21.46;46.01;95936.78;10346086;28;1785;-56
2022/05/10 14:39:45;;;;;;;;;;;;;;;21.46;46.40;95926.25;10332326;28;1857;-56
2022/05/10 14:44:46;;;;;;;;;;;;;;;21.46;46.24;95923.59;10329164;28;1807;-57
2022/05/10 14:49:46;;;;;;;;;;;;;;;21.47;46.26;95917.28;10343528;28;1910;-56
2022/05/10 14:54:46;;;;;;;;;;;;;;;21.47;46.22;95912.00;10341239;28;1861;-56
2022/05/10 14:59:51;;;;;;;;;;;;;;;21.48;46.17;95904.88;10356325;28;4158;-55
2022/05/10 15:04:52;;;;;;;;;;;;;;;21.47;46.21;95895.38;10344937;28;4584;-57
2022/05/10 15:09:52;;;;;;;;;;;;;;;21.47;46.04;95892.75;10358615;28;1922;-57
2022/05/10 15:14:53;;;;;;;;;;;;;;;21.47;46.15;95887.47;10343884;28;1853;-56
2022/05/10 15:19:54;;;;;;;;;;;;;;;21.47;46.11;95880.38;10342088;28;1813;-53
2022/05/10 15:24:54;;;;;;;;;;;;;;;21.47;46.22;95884.84;10336087;28;1861;-54
2022/05/10 15:29:56;;;;;;;;;;;;;;;21.46;46.28;95872.72;10356711;28;1965;-56
2022/05/10 15:34:56;;;;;;;;;;;;;;;21.45;46.02;95876.41;10340233;28;1894;-54
2022/05/10 15:39:57;;;;;;;;;;;;;;;21.47;46.21;95876.94;10340395;28;1737;-54
2022/05/10 15:44:58;;;;;;;;;;;;;;;21.45;45.89;95871.91;10360188;28;1765;-56
2022/05/10 15:49:59;;;;;;;;;;;;;;;21.45;45.93;95876.41;10356349;28;1922;-55
2022/05/10 15:54:59;;;;;;;;;;;;;;;21.45;45.86;95871.91;10338547;28;1788;-57
2022/05/10 15:59:59;;;;;;;;;;;;;;;21.44;46.06;95870.34;10345124;28;3981;-59
2022/05/10 16:05:00;;;;;;;;;;;;;;;21.45;46.02;95871.16;10355796;28;4710;-56
2022/05/10 16:10:00;;;;;;;;;;;;;;;21.44;45.89;95864.28;10342630;28;1967;-55
2022/05/10 16:15:02;;;;;;;;;;;;;;;21.45;45.81;95868.50;10360151;28;1808;-58
2022/05/10 16:20:03;;;;;;;;;;;;;;;21.46;45.96;95864.78;10363087;28;1913;-56
2022/05/10 16:25:04;;;;;;;;;;;;;;;21.46;45.72;95867.44;10357653;28;1848;-57
2022/05/10 16:30:05;;;;;;;;;;;;;;;21.45;45.95;95865.88;10343955;28;1977;-55
2022/05/10 16:35:06;;;;;;;;;;;;;;;21.44;45.90;95856.38;10343299;28;1816;-56
2022/05/10 16:40:07;;;;;;;;;;;;;;;21.44;45.71;95859.81;10335857;28;1862;-59
2022/05/10 16:45:09;;;;;;;;;;;;;;;21.45;45.77;95861.34;10341656;28;2493;-57
2022/05/10 16:50:10;;;;;;;;;;;;;;;21.44;45.88;95859.81;10338433;28;1969;-57
2022/05/10 16:55:11;;;;;;;;;;;;;;;21.44;45.88;95848.47;10353644;28;1809;-58
2022/05/10 17:00:12;;;;;;;;;;;;;;;21.45;45.55;95847.41;10352692;28;1772;-58
2022/05/10 17:05:14;;;;;;;;;;;;;;;21.45;45.95;95852.69;10337515;28;4187;-55
2022/05/10 17:10:16;;;;;;;;;;;;;;;21.45;45.81;95850.03;10333682;28;1910;-52
2022/05/10 17:15:16;;;;;;;;;;;;;;;21.44;45.65;95848.47;10335124;28;1829;-54
2022/05/10 17:20:16;;;;;;;;;;;;;;;21.45;45.58;95855.31;10355028;28;1820;-57
2022/05/10 17:25:23;;;;;;;;;;;;;;;21.44;45.77;95854.53;10350612;28;1847;-58
2022/05/10 17:30:24;;;;;;;;;;;;;;;21.44;45.87;95853.72;10354114;28;1906;-55
2022/05/10 17:35:24;;;;;;;;;;;;;;;21.45;45.52;95850.03;10357334;28;1792;-56
2022/05/10 17:40:25;;;;;;;;;;;;;;;21.45;45.54;95861.34;10350265;28;1875;-55
2022/05/10 17:45:25;;;;;;;;;;;;;;;21.45;45.76;95860.59;10327438;28;1765;-55
2022/05/10 17:50:26;;;;;;;;;;;;;;;21.45;45.78;95852.69;10345074;28;1973;-55
2022/05/10 17:55:27;;;;;;;;;;;;;;;21.50;45.60;95852.63;10335677;28;1816;-55
2022/05/10 18:00:27;;;;;;;;;;;;;;;21.49;46.04;95859.78;10348461;28;1805;-59
2022/05/10 18:05:28;;;;;;;;;;;;;;;21.49;45.62;95859.78;10335751;28;4235;-58
2022/05/10 18:10:29;;;;;;;;;;;;;;;21.52;45.16;95853.94;10332710;28;1914;-59
2022/05/10 18:15:30;;;;;;;;;;;;;;;21.54;44.85;95856.28;10352668;28;1824;-54
2022/05/10 18:20:30;;;;;;;;;;;;;;;21.53;44.51;95850.25;10362072;28;1874;-55
2022/05/10 18:25:31;;;;;;;;;;;;;;;21.56;44.80;95852.31;10360251;28;1891;-56
2022/05/10 18:30:32;;;;;;;;;;;;;;;21.52;43.70;95848.66;10362337;28;1977;-59
2022/05/10 18:35:32;;;;;;;;;;;;;;;21.54;43.86;95851.00;10362245;28;1902;-57
2022/05/10 18:40:33;;;;;;;;;;;;;;;21.53;43.71;95852.88;10348185;28;1796;-54
2022/05/10 18:45:33;;;;;;;;;;;;;;;21.52;42.89;95853.13;10346958;28;1879;-57
2022/05/10 18:50:34;;;;;;;;;;;;;;;21.52;43.09;95856.56;10355001;28;2299;-60
2022/05/10 18:55:34;;;;;;;;;;;;;;;21.54;43.73;95853.66;10342567;28;2085;-57
2022/05/10 19:00:37;;;;;;;;;;;;;;;21.54;43.09;95861.56;10339387;28;1800;-54
2022/05/10 19:05:38;;;;;;;;;;;;;;;21.53;42.93;95873.19;10332949;28;4379;-57
2022/05/10 19:10:38;;;;;;;;;;;;;;;21.51;44.13;95872.69;10331729;28;2182;-57
2022/05/10 19:15:38;;;;;;;;;;;;;;;21.51;45.40;95877.94;10342836;28;1793;-56
2022/05/10 19:20:39;;;;;;;;;;;;;;;21.53;45.98;95870.56;10345587;28;1966;-56
2022/05/10 19:25:39;;;;;;;;;;;;;;;21.53;46.29;95873.97;10339598;28;1911;-56
2022/05/10 19:30:39;;;;;;;;;;;;;;;21.55;46.42;95876.34;10356311;28;1934;-56
2022/05/10 19:35:40;;;;;;;;;;;;;;;21.55;46.30;95882.41;10370717;28;1784;-55
2022/05/10 19:40:40;;;;;;;;;;;;;;;21.54;46.24;95880.03;10349961;28;1871;-59
2022/05/10 19:45:41;;;;;;;;;;;;;;;21.53;46.44;95884.53;10352888;28;1773;-52
2022/05/10 19:50:42;;;;;;;;;;;;;;;21.53;46.17;95883.75;10356986;28;1902;-55
2022/05/10 19:55:43;;;;;;;;;;;;;;;21.52;46.45;95884.78;10354360;28;1815;-57
2022/05/10 20:00:44;;;;;;;;;;;;;;;21.51;46.46;95891.94;10357031;28;1867;-55
2022/05/10 20:05:44;;;;;;;;;;;;;;;21.50;46.39;95885.06;10340809;28;4140;-54
2022/05/10 20:10:45;;;;;;;;;;;;;;;21.51;46.25;95891.13;10341384;28;1977;-54
2022/05/10 20:15:46;;;;;;;;;;;;;;;21.50;46.42;95889.56;10337945;28;1785;-55
2022/05/10 20:20:46;;;;;;;;;;;;;;;21.50;46.42;95892.19;10336714;28;1765;-56
2022/05/10 20:25:47;;;;;;;;;;;;;;;21.49;46.35;95893.28;10338411;28;1833;-56
2022/05/10 20:30:47;;;;;;;;;;;;;;;21.48;46.48;95894.31;10344622;28;2072;-55
2022/05/10 20:35:48;;;;;;;;;;;;;;;21.48;46.29;95902.22;10340854;28;1812;-53
2022/05/10 20:40:48;;;;;;;;;;;;;;;21.47;46.36;95892.75;10330985;28;1814;-56
2022/05/10 20:45:48;;;;;;;;;;;;;;;21.46;46.31;95888.53;10330687;28;2171;-57
2022/05/10 20:50:48;;;;;;;;;;;;;;;21.47;46.15;95890.13;10339425;28;1983;-58
2022/05/10 20:55:49;;;;;;;;;;;;;;;21.46;46.37;95894.59;10352836;28;1775;-56
2022/05/10 21:00:49;;;;;;;;;;;;;;;21.47;46.13;95901.47;10333789;28;2051;-56
2022/05/10 21:05:49;;;;;;;;;;;;;;;21.47;46.04;95898.81;10344766;28;4170;-54
2022/05/10 21:10:50;;;;;;;;;;;;;;;21.47;46.26;95903.31;10351057;28;1918;-59
2022/05/10 21:15:51;;;;;;;;;;;;;;;21.47;46.13;95900.66;10355510;28;1792;-58
2022/05/10 21:20:52;;;;;;;;;;;;;;;21.47;45.83;95892.75;10350844;28;1804;-55
2022/05/10 21:25:52;;;;;;;;;;;;;;;21.46;46.10;95891.16;10353264;28;1860;-59
2022/05/10 21:36:11;;;;;;;;;;;;;;;21.45;45.99;95886.97;10350384;28;1789;-57
2022/05/10 21:41:12;;;;;;;;;;;;;;;21.45;45.88;95900.91;10347861;28;1918;-58
2022/05/10 21:46:12;;;;;;;;;;;;;;;21.45;46.06;95900.91;10351323;28;1860;-58
2022/05/10 21:51:13;;;;;;;;;;;;;;;21.45;45.92;95898.28;10351117;28;1942;-58
2022/05/10 21:56:14;;;;;;;;;;;;;;;21.45;45.76;95894.88;10334084;28;1791;-58
2022/05/10 22:01:14;;;;;;;;;;;;;;;21.45;45.85;95895.66;10350851;28;1987;-57
2022/05/10 22:06:15;;;;;;;;;;;;;;;21.44;45.77;95894.09;10345095;28;4245;-55
2022/05/10 22:11:15;;;;;;;;;;;;;;;21.46;45.85;95896.44;10353287;28;1966;-55
2022/05/10 22:16:15;;;;;;;;;;;;;;;21.44;45.82;95890.66;10345976;28;1916;-56
2022/05/10 22:21:16;;;;;;;;;;;;;;;21.45;45.74;95886.97;10334993;28;1885;-56
2022/05/10 22:26:16;;;;;;;;;;;;;;;21.44;45.58;95898.56;10332971;28;1952;-53
2022/05/10 22:31:16;;;;;;;;;;;;;;;21.44;45.52;95893.28;10336267;28;1911;-55
2022/05/10 22:36:17;;;;;;;;;;;;;;;21.44;45.50;95895.94;10333255;28;1811;-58
2022/05/10 22:41:17;;;;;;;;;;;;;;;21.44;45.60;95888.03;10323354;28;2094;-60
2022/05/10 22:46:17;;;;;;;;;;;;;;;21.44;45.39;95882.75;10349020;28;1824;-58
2022/05/10 22:51:18;;;;;;;;;;;;;;;21.43;45.54;95879.31;10354595;28;1972;-59
2022/05/10 22:56:18;;;;;;;;;;;;;;;21.43;45.44;95883.81;10331407;28;1822;-58
2022/05/10 23:01:21;;;;;;;;;;;;;;;21.43;45.21;95881.19;10352186;28;1836;-56
2022/05/10 23:06:21;;;;;;;;;;;;;;;21.43;45.28;95881.94;10354524;28;4169;-57
2022/05/10 23:11:22;;;;;;;;;;;;;;;21.43;45.37;95879.31;10339849;28;1934;-53
2022/05/10 23:16:22;;;;;;;;;;;;;;;21.42;45.48;95876.97;10352292;28;1765;-58
2022/05/10 23:21:23;;;;;;;;;;;;;;;21.42;45.16;95882.22;10354567;28;1745;-56
2022/05/10 23:26:24;;;;;;;;;;;;;;;21.42;45.36;95871.69;10355411;28;1831;-57
2022/05/10 23:31:24;;;;;;;;;;;;;;;21.42;44.95;95872.47;10351545;28;1975;-58
2022/05/10 23:36:24;;;;;;;;;;;;;;;21.42;45.20;95869.84;10355404;28;1828;-56
2022/05/10 23:41:25;;;;;;;;;;;;;;;21.41;45.36;95857.69;10354765;28;1883;-60
2022/05/10 23:46:26;;;;;;;;;;;;;;;21.42;45.09;95858.50;10358797;28;1816;-59
2022/05/10 23:51:27;;;;;;;;;;;;;;;21.42;45.36;95855.88;10338121;28;1966;-57
2022/05/10 23:56:28;;;;;;;;;;;;;;;21.42;45.13;95855.88;10343828;28;1824;-55
